Time;durP1;ratioP1;P1;durP2;ratioP2;P2;SDS_P1;SDS_P2;PMS_P1;PMS_P2;Temp;Humidity;BMP_temperature;BMP_pressure;BME280_temperature;BME280_humidity;BME280_pressure;Samples;Min_cycle;Max_cycle;Signal;HPM_P1;HPM_P2
2023/04/19 00:02:20;;;;;;;;;;;;;;;9.50;80.28;102700.28;4979504;28;20408;-55
2023/04/19 00:04:46;;;;;;;;;;;;;;;9.54;79.89;102695.44;4979737;28;19929;-54
2023/04/19 00:07:12;;;;;;;;;;;;;;;9.55;80.15;102696.31;4977171;28;19948;-55
2023/04/19 00:09:37;;;;;;;;;;;;;;;9.57;80.09;102697.28;4977896;28;19934;-55
2023/04/19 00:12:02;;;;;;;;;;;;;;;9.64;79.88;102695.19;4975616;28;20013;-55
2023/04/19 00:14:28;;;;;;;;;;;;;;;9.65;80.06;102696.97;4975666;28;19925;-53
2023/04/19 00:16:53;;;;;;;;;;;;;;;9.67;80.07;102687.69;4975800;28;19926;-55
2023/04/19 00:19:20;;;;;;;;;;;;;;;9.68;79.82;102686.88;4973851;28;19922;-56
2023/04/19 00:21:45;;;;;;;;;;;;;;;9.71;79.99;102690.41;4980039;28;19936;-55
2023/04/19 00:24:11;;;;;;;;;;;;;;;9.75;79.98;102687.25;4975455;28;19925;-56
2023/04/19 00:26:36;;;;;;;;;;;;;;;9.91;79.50;102689.94;4979976;28;20025;-57
2023/04/19 00:29:01;;;;;;;;;;;;;;;9.80;79.81;102683.28;4979931;28;19930;-54
2023/04/19 00:31:26;;;;;;;;;;;;;;;9.83;79.90;102686.94;4978118;28;19926;-54
2023/04/19 00:33:52;;;;;;;;;;;;;;;9.87;79.72;102682.84;4977718;28;20396;-57
2023/04/19 00:36:17;;;;;;;;;;;;;;;9.91;79.78;102687.38;4978300;28;20867;-55
2023/04/19 00:38:42;;;;;;;;;;;;;;;9.91;79.95;102688.25;4978856;28;19966;-56
2023/04/19 00:41:07;;;;;;;;;;;;;;;9.87;80.22;102682.84;4982743;28;20429;-55
2023/04/19 00:43:33;;;;;;;;;;;;;;;9.89;79.81;102676.13;4976035;28;19930;-56
2023/04/19 00:45:58;;;;;;;;;;;;;;;9.90;79.91;102685.63;4972923;28;19955;-55
2023/04/19 00:48:24;;;;;;;;;;;;;;;9.90;80.00;102680.47;4982601;28;20364;-55
2023/04/19 00:50:49;;;;;;;;;;;;;;;9.92;80.33;102681.44;4980619;28;19926;-55
2023/04/19 00:53:14;;;;;;;;;;;;;;;9.88;80.44;102675.22;4982252;28;19993;-54
2023/04/19 00:55:40;;;;;;;;;;;;;;;9.94;80.51;102682.41;4982924;28;20024;-53
2023/04/19 00:58:07;;;;;;;;;;;;;;;9.95;80.39;102681.66;4982438;28;20026;-54
2023/04/19 01:00:32;;;;;;;;;;;;;;;9.90;80.77;102688.19;4978805;28;19918;-54
2023/04/19 01:02:57;;;;;;;;;;;;;;;9.91;80.68;102675.41;4981311;28;19931;-54
2023/04/19 01:05:23;;;;;;;;;;;;;;;9.87;80.83;102677.72;4981234;28;20013;-54
2023/04/19 01:07:48;;;;;;;;;;;;;;;9.91;81.09;102674.53;4979724;28;20383;-56
2023/04/19 01:10:14;;;;;;;;;;;;;;;9.91;80.78;102672.84;4979508;28;19930;-55
2023/04/19 01:12:39;;;;;;;;;;;;;;;9.86;81.57;102674.25;4978121;28;19968;-54
2023/04/19 01:15:04;;;;;;;;;;;;;;;9.85;81.49;102680.19;4979085;28;20422;-54
2023/04/19 01:17:30;;;;;;;;;;;;;;;9.86;81.65;102673.38;4982404;28;19913;-55
2023/04/19 01:19:59;;;;;;;;;;;;;;;9.89;81.54;102671.88;4980642;28;19957;-56
2023/04/19 01:22:25;;;;;;;;;;;;;;;9.90;81.43;102671.09;4980081;28;19932;-54
2023/04/19 01:24:50;;;;;;;;;;;;;;;9.94;81.74;102667.00;4978714;28;20384;-55
2023/04/19 01:27:16;;;;;;;;;;;;;;;9.91;81.53;102666.81;4976733;28;19968;-54
2023/04/19 01:29:41;;;;;;;;;;;;;;;9.93;81.71;102665.22;4984651;28;19944;-56
2023/04/19 01:32:07;;;;;;;;;;;;;;;9.96;81.96;102668.00;4973752;28;19922;-55
2023/04/19 01:34:32;;;;;;;;;;;;;;;9.93;82.04;102676.38;4980630;28;19929;-55
2023/04/19 01:36:57;;;;;;;;;;;;;;;9.87;82.26;102667.44;4989522;28;19950;-53
2023/04/19 01:39:24;;;;;;;;;;;;;;;9.86;82.46;102670.78;4979537;28;19922;-54
2023/04/19 01:41:50;;;;;;;;;;;;;;;9.89;82.43;102664.19;4981427;28;19922;-55
2023/04/19 01:44:15;;;;;;;;;;;;;;;9.90;82.53;102657.34;4983804;28;19986;-54
2023/04/19 01:46:41;;;;;;;;;;;;;;;9.94;82.80;102651.56;4976508;28;19931;-45
2023/04/19 01:49:07;;;;;;;;;;;;;;;9.96;82.60;102665.41;4983444;28;19926;-44
2023/04/19 01:51:32;;;;;;;;;;;;;;;9.97;83.33;102662.06;4986151;28;19922;-43
2023/04/19 01:53:57;;;;;;;;;;;;;;;9.99;83.50;102655.31;4982267;28;19922;-44
2023/04/19 01:56:22;;;;;;;;;;;;;;;10.00;83.78;102653.63;4981000;28;19967;-44
2023/04/19 01:58:48;;;;;;;;;;;;;;;10.00;83.06;102657.06;4984810;28;19922;-46
2023/04/19 02:01:13;;;;;;;;;;;;;;;10.01;83.08;102656.31;4980219;28;20055;-46
2023/04/19 02:03:39;;;;;;;;;;;;;;;10.05;83.39;102647.06;4985828;28;19926;-46
2023/04/19 02:06:04;;;;;;;;;;;;;;;10.06;83.36;102649.72;4978974;28;19945;-45
2023/04/19 02:08:29;;;;;;;;;;;;;;;10.08;83.52;102648.16;4982318;28;19945;-44
2023/04/19 02:10:55;;;;;;;;;;;;;;;10.07;83.80;102641.25;4981579;28;20364;-44
2023/04/19 02:13:20;;;;;;;;;;;;;;;10.09;83.45;102642.22;4985576;28;19930;-43
2023/04/19 02:15:45;;;;;;;;;;;;;;;10.07;84.12;102646.38;4980598;28;19933;-44
2023/04/19 02:18:12;;;;;;;;;;;;;;;10.06;84.29;102644.59;4974950;28;19922;-46
2023/04/19 02:20:37;;;;;;;;;;;;;;;10.06;84.44;102641.13;4977855;28;20315;-44
2023/04/19 02:23:02;;;;;;;;;;;;;;;10.10;84.02;102646.53;4979837;28;19920;-45
2023/04/19 02:25:28;;;;;;;;;;;;;;;10.13;84.12;102641.59;4982035;28;19926;-47
2023/04/19 02:27:53;;;;;;;;;;;;;;;10.05;84.74;102642.81;4980067;28;19926;-45
2023/04/19 02:30:18;;;;;;;;;;;;;;;10.00;84.59;102639.09;4984611;28;19926;-44
2023/04/19 02:32:46;;;;;;;;;;;;;;;10.01;85.05;102640.88;4980559;28;20461;-46
2023/04/19 02:35:11;;;;;;;;;;;;;;;9.99;84.53;102642.47;4975575;28;19918;-46
2023/04/19 02:37:36;;;;;;;;;;;;;;;10.00;84.79;102641.66;4978668;28;20005;-45
2023/04/19 02:40:04;;;;;;;;;;;;;;;9.94;84.69;102642.19;4978494;28;19932;-45
2023/04/19 02:42:29;;;;;;;;;;;;;;;9.90;85.47;102645.38;4978868;28;20277;-44
2023/04/19 02:44:54;;;;;;;;;;;;;;;9.89;85.01;102645.31;4981501;28;19971;-44
2023/04/19 02:47:20;;;;;;;;;;;;;;;9.89;84.92;102645.31;4977384;28;19930;-45
2023/04/19 02:49:45;;;;;;;;;;;;;;;9.85;85.36;102643.34;4979069;28;20304;-47
2023/04/19 02:52:10;;;;;;;;;;;;;;;9.82;85.47;102648.28;4981836;28;21599;-45
2023/04/19 02:54:35;;;;;;;;;;;;;;;9.78;85.52;102647.22;4985140;28;19949;-45
2023/04/19 02:57:01;;;;;;;;;;;;;;;9.79;85.67;102653.25;4981526;28;19922;-54
2023/04/19 02:59:26;;;;;;;;;;;;;;;9.77;85.78;102649.69;4979305;28;20051;-55
2023/04/19 03:01:51;;;;;;;;;;;;;;;9.72;85.38;102654.56;4977054;28;19971;-56
2023/04/19 03:04:17;;;;;;;;;;;;;;;9.70;85.90;102653.56;4982863;28;19928;-55
2023/04/19 03:06:43;;;;;;;;;;;;;;;9.72;85.86;102654.56;4977617;28;19929;-56
2023/04/19 03:09:09;;;;;;;;;;;;;;;9.67;86.09;102654.28;4979362;28;19925;-57
2023/04/19 03:11:35;;;;;;;;;;;;;;;9.64;86.00;102648.06;4981893;28;19975;-55
2023/04/19 03:14:01;;;;;;;;;;;;;;;9.68;86.15;102650.91;4983103;28;19962;-55
2023/04/19 03:16:26;;;;;;;;;;;;;;;9.66;86.10;102659.34;4979012;28;21995;-55
2023/04/19 03:18:51;;;;;;;;;;;;;;;9.65;85.90;102649.88;4982422;28;19926;-56
2023/04/19 03:21:16;;;;;;;;;;;;;;;9.68;86.05;102647.47;4978182;28;19958;-54
2023/04/19 03:23:41;;;;;;;;;;;;;;;9.62;86.23;102653.13;4978831;28;19926;-55
2023/04/19 03:26:07;;;;;;;;;;;;;;;9.62;86.09;102640.28;4983765;28;19977;-46
2023/04/19 03:28:32;;;;;;;;;;;;;;;9.62;86.33;102637.69;4980305;28;19926;-44
2023/04/19 03:30:57;;;;;;;;;;;;;;;9.61;86.58;102641.06;4982087;28;20020;-46
2023/04/19 03:33:22;;;;;;;;;;;;;;;9.63;86.24;102639.47;4977555;28;20565;-45
2023/04/19 03:35:48;;;;;;;;;;;;;;;9.64;86.99;102637.78;4983231;28;19944;-47
2023/04/19 03:38:13;;;;;;;;;;;;;;;9.65;86.38;102643.03;4980724;28;19926;-47
2023/04/19 03:40:38;;;;;;;;;;;;;;;9.63;86.65;102642.03;4995353;28;19922;-47
2023/04/19 03:43:03;;;;;;;;;;;;;;;9.61;87.10;102630.81;4978628;28;20388;-43
2023/04/19 03:45:29;;;;;;;;;;;;;;;9.63;86.92;102636.91;4981500;28;19941;-44
2023/04/19 03:47:54;;;;;;;;;;;;;;;9.64;86.64;102641.25;4979074;28;19925;-46
2023/04/19 03:50:19;;;;;;;;;;;;;;;9.62;86.57;102647.97;4988421;28;19932;-43
2023/04/19 03:52:45;;;;;;;;;;;;;;;9.61;86.86;102643.63;4981552;28;19928;-44
2023/04/19 03:55:11;;;;;;;;;;;;;;;9.60;86.59;102643.56;4982825;28;20531;-44
2023/04/19 03:57:36;;;;;;;;;;;;;;;9.59;86.92;102647.81;4979970;28;19926;-44
2023/04/19 04:00:05;;;;;;;;;;;;;;;9.56;86.94;102642.47;4980096;28;19926;-44
2023/04/19 04:02:31;;;;;;;;;;;;;;;9.60;86.81;102646.13;4980309;28;19930;-48
2023/04/19 04:04:56;;;;;;;;;;;;;;;9.61;86.78;102642.75;4977470;28;19936;-44
2023/04/19 04:07:22;;;;;;;;;;;;;;;9.50;86.65;102634.41;4981553;28;19922;-44
2023/04/19 04:09:47;;;;;;;;;;;;;;;9.49;87.00;102637.75;4982421;28;19929;-43
2023/04/19 04:12:12;;;;;;;;;;;;;;;9.48;86.76;102636.00;4980650;28;20204;-44
2023/04/19 04:14:38;;;;;;;;;;;;;;;9.49;86.74;102634.31;4977516;28;19979;-43
2023/04/19 04:17:03;;;;;;;;;;;;;;;9.45;86.97;102640.94;4978071;28;19926;-44
2023/04/19 04:19:28;;;;;;;;;;;;;;;9.42;87.19;102639.88;4980665;28;19929;-44
2023/04/19 04:21:53;;;;;;;;;;;;;;;9.42;86.76;102645.91;4979426;28;19926;-45
2023/04/19 04:24:19;;;;;;;;;;;;;;;9.35;86.94;102643.75;4975826;28;20364;-44
2023/04/19 04:26:44;;;;;;;;;;;;;;;9.34;86.78;102639.38;4980767;28;19926;-45
2023/04/19 04:29:09;;;;;;;;;;;;;;;9.37;86.67;102640.47;4980799;28;19926;-47
2023/04/19 04:31:35;;;;;;;;;;;;;;;9.31;86.51;102641.78;4985852;28;19922;-44
2023/04/19 04:34:00;;;;;;;;;;;;;;;9.23;86.38;102643.88;4984264;28;19926;-44
2023/04/19 04:36:28;;;;;;;;;;;;;;;9.14;86.53;102648.44;4979890;28;19930;-45
2023/04/19 04:38:54;;;;;;;;;;;;;;;9.20;85.82;102648.81;4980833;28;20299;-46
2023/04/19 04:41:19;;;;;;;;;;;;;;;9.22;85.56;102654.03;4985766;28;19922;-46
2023/04/19 04:43:48;;;;;;;;;;;;;;;9.02;85.75;102651.13;4984313;28;19928;-45
2023/04/19 04:46:13;;;;;;;;;;;;;;;9.04;85.60;102657.25;4981066;28;20125;-44
2023/04/19 04:48:38;;;;;;;;;;;;;;;8.94;85.79;102656.56;4980269;28;19945;-45
2023/04/19 04:51:04;;;;;;;;;;;;;;;8.84;85.98;102653.41;4990237;28;19945;-45
2023/04/19 04:53:29;;;;;;;;;;;;;;;8.82;85.86;102657.56;4982983;28;19922;-44
2023/04/19 04:55:54;;;;;;;;;;;;;;;8.80;85.79;102659.16;4983137;28;19925;-56
2023/04/19 04:58:20;;;;;;;;;;;;;;;8.71;85.97;102662.78;4982495;28;19985;-55
2023/04/19 05:00:45;;;;;;;;;;;;;;;8.70;86.18;102668.72;4980252;28;20310;-56
2023/04/19 05:03:11;;;;;;;;;;;;;;;8.68;86.02;102649.78;4977182;28;19964;-55
2023/04/19 05:05:36;;;;;;;;;;;;;;;8.65;86.37;102659.84;4980785;28;19941;-56
2023/04/19 05:08:01;;;;;;;;;;;;;;;8.82;85.87;102667.81;4980515;28;19921;-55
2023/04/19 05:10:26;;;;;;;;;;;;;;;9.06;85.40;102662.47;4983666;28;20338;-56
2023/04/19 05:12:52;;;;;;;;;;;;;;;9.25;85.18;102661.94;4981484;28;19945;-56
2023/04/19 05:15:17;;;;;;;;;;;;;;;9.44;84.04;102674.22;4985622;28;19936;-45
2023/04/19 05:17:42;;;;;;;;;;;;;;;9.58;83.58;102663.97;4980122;28;19922;-48
2023/04/19 05:20:08;;;;;;;;;;;;;;;9.78;82.63;102664.31;4982206;28;20000;-46
2023/04/19 05:22:33;;;;;;;;;;;;;;;9.99;82.73;102660.44;4981517;28;19925;-45
2023/04/19 05:24:58;;;;;;;;;;;;;;;10.21;82.00;102665.16;4982284;28;20394;-45
2023/04/19 05:27:23;;;;;;;;;;;;;;;10.36;79.96;102673.78;4976559;28;19930;-47
2023/04/19 05:29:50;;;;;;;;;;;;;;;10.53;81.12;102671.31;4979578;28;19929;-45
2023/04/19 05:32:15;;;;;;;;;;;;;;;10.53;79.41;102673.88;4980508;28;19944;-45
2023/04/19 05:34:40;;;;;;;;;;;;;;;10.19;80.25;102665.09;4983537;28;19922;-48
2023/04/19 05:37:06;;;;;;;;;;;;;;;9.84;79.99;102677.53;4981762;28;19929;-45
2023/04/19 05:39:31;;;;;;;;;;;;;;;9.53;81.68;102670.56;4976456;28;20687;-44
2023/04/19 05:41:56;;;;;;;;;;;;;;;9.28;81.75;102674.94;4982723;28;19922;-45
2023/04/19 05:44:21;;;;;;;;;;;;;;;9.14;82.04;102674.09;4982185;28;19967;-46
2023/04/19 05:46:47;;;;;;;;;;;;;;;9.02;82.49;102679.34;4981783;28;20109;-45
2023/04/19 05:49:12;;;;;;;;;;;;;;;9.02;82.17;102676.78;4980752;28;20004;-48
2023/04/19 05:51:37;;;;;;;;;;;;;;;8.98;82.31;102672.25;4988914;28;19943;-46
2023/04/19 05:54:02;;;;;;;;;;;;;;;8.93;82.31;102672.75;4983602;28;19937;-45
2023/04/19 05:56:28;;;;;;;;;;;;;;;8.96;82.04;102668.69;4977932;28;20008;-44
2023/04/19 05:58:55;;;;;;;;;;;;;;;9.04;81.55;102671.72;4982017;28;19917;-44
2023/04/19 06:01:20;;;;;;;;;;;;;;;9.00;80.88;102674.91;4982508;28;19929;-44
2023/04/19 06:03:45;;;;;;;;;;;;;;;9.04;80.93;102672.66;4982387;28;19925;-45
2023/04/19 06:06:11;;;;;;;;;;;;;;;9.02;80.63;102676.78;4977866;28;19930;-45
2023/04/19 06:08:36;;;;;;;;;;;;;;;9.14;80.50;102672.41;4980957;28;19925;-45
2023/04/19 06:11:01;;;;;;;;;;;;;;;9.38;77.86;102677.31;4976674;28;19933;-43
2023/04/19 06:13:26;;;;;;;;;;;;;;;9.64;77.02;102673.75;4982051;28;19922;-44
2023/04/19 06:15:52;;;;;;;;;;;;;;;9.83;76.60;102676.66;4981233;28;19979;-45
2023/04/19 06:18:17;;;;;;;;;;;;;;;10.05;75.51;102671.09;4980395;28;20024;-46
2023/04/19 06:20:42;;;;;;;;;;;;;;;10.17;75.69;102673.50;4984905;28;20629;-45
2023/04/19 06:23:07;;;;;;;;;;;;;;;10.29;73.15;102675.94;4980833;28;19922;-45
2023/04/19 06:25:33;;;;;;;;;;;;;;;10.38;73.49;102679.03;4981681;28;21494;-44
2023/04/19 06:27:59;;;;;;;;;;;;;;;10.44;69.31;102680.28;4978127;28;20017;-44
2023/04/19 06:30:24;;;;;;;;;;;;;;;10.52;70.43;102677.25;4978555;28;19922;-46
2023/04/19 06:32:50;;;;;;;;;;;;;;;10.59;69.92;102669.09;4980924;28;19937;-44
2023/04/19 06:35:15;;;;;;;;;;;;;;;10.81;69.55;102676.34;4982019;28;19921;-44
2023/04/19 06:37:40;;;;;;;;;;;;;;;11.01;68.29;102670.59;4983018;28;19921;-45
2023/04/19 06:40:07;;;;;;;;;;;;;;;11.04;67.23;102667.28;4979218;28;19973;-49
2023/04/19 06:42:35;;;;;;;;;;;;;;;11.00;66.90;102672.28;4979230;28;19922;-47
2023/04/19 06:45:00;;;;;;;;;;;;;;;11.16;66.30;102675.69;4982274;28;19918;-47
2023/04/19 06:47:26;;;;;;;;;;;;;;;11.18;63.71;102672.41;4979859;28;19963;-49
2023/04/19 06:49:51;;;;;;;;;;;;;;;11.22;64.14;102682.06;4979788;28;20380;-45
2023/04/19 06:52:16;;;;;;;;;;;;;;;11.44;63.01;102667.75;4987969;28;19924;-45
2023/04/19 06:54:45;;;;;;;;;;;;;;;11.50;61.84;102668.09;4977344;28;20044;-47
2023/04/19 06:57:10;;;;;;;;;;;;;;;11.54;61.99;102678.66;4977481;28;20296;-48
2023/04/19 06:59:38;;;;;;;;;;;;;;;11.59;61.10;102666.00;4977459;28;20326;-46
2023/04/19 07:02:03;;;;;;;;;;;;;;;11.56;61.16;102665.84;4977539;28;20445;-47
2023/04/19 07:04:29;;;;;;;;;;;;;;;11.50;60.26;102673.25;4980215;28;19955;-56
2023/04/19 07:06:54;;;;;;;;;;;;;;;11.38;60.79;102672.59;4982168;28;20281;-57
2023/04/19 07:09:19;;;;;;;;;;;;;;;11.55;58.04;102671.78;4981443;28;19922;-58
2023/04/19 07:11:46;;;;;;;;;;;;;;;11.42;59.33;102675.41;4979779;28;19975;-56
2023/04/19 07:14:11;;;;;;;;;;;;;;;11.24;59.60;102674.44;4979392;28;20012;-58
2023/04/19 07:16:37;;;;;;;;;;;;;;;11.37;59.48;102670.81;4981084;28;20029;-58
2023/04/19 07:19:02;;;;;;;;;;;;;;;11.42;56.92;102665.13;4979153;28;19933;-58
2023/04/19 07:21:31;;;;;;;;;;;;;;;11.44;57.13;102688.38;4973557;28;19946;-57
2023/04/19 07:23:56;;;;;;;;;;;;;;;11.54;57.97;102659.72;4980048;28;19922;-58
2023/04/19 07:26:22;;;;;;;;;;;;;;;11.36;56.70;102669.94;4981267;28;20380;-57
2023/04/19 07:28:47;;;;;;;;;;;;;;;11.28;56.72;102678.91;4980790;28;19983;-57
2023/04/19 07:31:16;;;;;;;;;;;;;;;11.33;57.68;102674.03;4984943;28;19926;-57
2023/04/19 07:33:42;;;;;;;;;;;;;;;11.42;56.66;102690.00;4985810;28;19945;-57
2023/04/19 07:36:07;;;;;;;;;;;;;;;11.51;54.99;102672.44;4982645;28;19918;-58
2023/04/19 07:38:32;;;;;;;;;;;;;;;11.51;55.59;102672.44;4986463;28;19918;-58
2023/04/19 07:40:57;;;;;;;;;;;;;;;11.44;55.19;102662.59;4983645;28;19940;-58
2023/04/19 07:43:23;;;;;;;;;;;;;;;11.34;55.53;102675.78;4985519;28;20009;-58
2023/04/19 07:45:48;;;;;;;;;;;;;;;11.54;55.95;102670.91;4986133;28;20396;-57
2023/04/19 07:48:13;;;;;;;;;;;;;;;11.60;53.63;102664.31;4987646;28;19968;-57
2023/04/19 07:50:39;;;;;;;;;;;;;;;11.59;52.85;102672.81;4989557;28;20327;-58
2023/04/19 07:53:04;;;;;;;;;;;;;;;11.50;53.71;102662.94;4983352;28;19934;-57
2023/04/19 07:55:29;;;;;;;;;;;;;;;11.66;53.51;102662.94;4985232;28;19918;-58
2023/04/19 07:57:54;;;;;;;;;;;;;;;11.68;54.05;102661.31;4984768;28;20017;-58
2023/04/19 08:00:22;;;;;;;;;;;;;;;11.77;52.67;102676.41;4986644;28;19960;-46
2023/04/19 08:02:50;;;;;;;;;;;;;;;11.75;53.15;102662.53;4988294;28;19954;-46
2023/04/19 08:05:16;;;;;;;;;;;;;;;11.70;53.19;102651.09;4986659;28;20255;-46
2023/04/19 08:07:41;;;;;;;;;;;;;;;11.70;53.78;102651.97;4988172;28;19918;-46
2023/04/19 08:10:07;;;;;;;;;;;;;;;12.02;52.55;102661.41;4987787;28;19914;-46
2023/04/19 08:12:32;;;;;;;;;;;;;;;11.97;52.20;102654.25;4987460;28;19925;-47
2023/04/19 08:14:57;;;;;;;;;;;;;;;12.01;51.30;102659.66;4987862;28;20348;-49
2023/04/19 08:17:23;;;;;;;;;;;;;;;11.94;51.50;102654.94;4986724;28;19921;-44
2023/04/19 08:19:49;;;;;;;;;;;;;;;12.05;50.91;102661.53;4987382;28;20415;-46
2023/04/19 08:22:18;;;;;;;;;;;;;;;12.07;50.99;102657.38;4982331;28;20296;-47
2023/04/19 08:24:43;;;;;;;;;;;;;;;12.20;51.25;102653.72;4981823;28;20284;-46
2023/04/19 08:27:09;;;;;;;;;;;;;;;12.33;50.68;102647.47;4988425;28;19918;-45
2023/04/19 08:29:34;;;;;;;;;;;;;;;12.30;49.88;102648.19;4990549;28;20004;-45
2023/04/19 08:32:00;;;;;;;;;;;;;;;12.30;48.43;102655.91;4982803;28;20009;-46
2023/04/19 08:34:25;;;;;;;;;;;;;;;12.25;48.99;102653.91;4979677;28;19977;-46
2023/04/19 08:36:51;;;;;;;;;;;;;;;12.30;49.66;102653.34;4987859;28;19921;-45
2023/04/19 08:39:16;;;;;;;;;;;;;;;12.41;48.70;102651.28;4982349;28;19918;-48
2023/04/19 08:41:41;;;;;;;;;;;;;;;12.41;48.02;102650.41;4985367;28;20376;-47
2023/04/19 08:44:09;;;;;;;;;;;;;;;12.39;47.96;102645.19;4985178;28;19921;-46
2023/04/19 08:46:34;;;;;;;;;;;;;;;12.34;48.03;102649.22;4988964;28;20365;-46
2023/04/19 08:49:00;;;;;;;;;;;;;;;12.46;49.12;102646.38;4989605;28;19924;-48
2023/04/19 08:51:25;;;;;;;;;;;;;;;12.46;47.25;102647.25;5015093;28;19924;-45
2023/04/19 08:53:51;;;;;;;;;;;;;;;12.42;45.81;102647.00;4991064;28;19922;-46
2023/04/19 08:56:16;;;;;;;;;;;;;;;12.51;47.06;102657.81;4982507;28;19923;-47
2023/04/19 08:58:42;;;;;;;;;;;;;;;12.44;45.45;102661.78;4988533;28;19932;-48
2023/04/19 09:01:07;;;;;;;;;;;;;;;12.45;46.22;102647.19;4985768;28;20448;-46
2023/04/19 09:03:33;;;;;;;;;;;;;;;12.50;45.40;102646.59;4984661;28;19914;-44
2023/04/19 09:05:59;;;;;;;;;;;;;;;12.44;45.51;102648.88;4988370;28;20020;-47
2023/04/19 09:08:29;;;;;;;;;;;;;;;12.57;45.37;102637.44;4985585;28;20989;-45
2023/04/19 09:10:58;;;;;;;;;;;;;;;12.61;44.56;102654.84;4987378;28;19917;-46
2023/04/19 09:13:24;;;;;;;;;;;;;;;12.53;45.69;102651.00;4988506;28;19922;-45
2023/04/19 09:15:50;;;;;;;;;;;;;;;12.65;45.10;102640.41;4988113;28;19922;-45
2023/04/19 09:18:15;;;;;;;;;;;;;;;12.55;44.01;102644.22;4982590;28;19926;-47
2023/04/19 09:20:42;;;;;;;;;;;;;;;12.67;43.60;102637.06;4988813;28;19919;-44
2023/04/19 09:23:11;;;;;;;;;;;;;;;12.46;44.66;102636.03;4989763;28;19982;-44
2023/04/19 09:25:36;;;;;;;;;;;;;;;12.50;44.23;102644.00;4988395;28;19922;-47
2023/04/19 09:28:11;;;;;;;;;;;;;;;12.45;43.77;102636.88;4987012;28;19921;-57
2023/04/19 09:30:37;;;;;;;;;;;;;;;12.59;44.57;102636.69;4987704;28;20005;-58
2023/04/19 09:33:02;;;;;;;;;;;;;;;12.65;44.50;102645.56;4983060;28;20021;-58
2023/04/19 09:35:41;;;;;;;;;;;;;;;12.78;43.98;102659.09;4987412;28;19918;-58
2023/04/19 09:38:06;;;;;;;;;;;;;;;12.61;43.77;102639.34;4978391;28;19971;-58
2023/04/19 09:40:31;;;;;;;;;;;;;;;12.74;44.50;102641.72;4985438;28;19922;-58
2023/04/19 09:42:57;;;;;;;;;;;;;;;12.68;43.13;102649.19;4981269;28;20310;-57
2023/04/19 09:45:22;;;;;;;;;;;;;;;12.53;42.60;102649.31;4984549;28;19922;-58
2023/04/19 09:48:01;;;;;;;;;;;;;;;12.53;43.17;102631.25;4987204;28;19929;-58
2023/04/19 09:50:26;;;;;;;;;;;;;;;12.52;44.23;102631.19;4986293;28;19932;-58
2023/04/19 09:52:51;;;;;;;;;;;;;;;12.50;43.40;102625.06;4987914;28;19925;-58
2023/04/19 09:55:18;;;;;;;;;;;;;;;12.70;42.22;102644.09;4987052;28;19918;-58
2023/04/19 09:57:43;;;;;;;;;;;;;;;12.60;40.82;102646.22;4987738;28;19914;-58
2023/04/19 10:00:12;;;;;;;;;;;;;;;12.65;41.36;102638.69;4985695;28;20360;-57
2023/04/19 10:02:39;;;;;;;;;;;;;;;12.66;41.53;102637.00;4986153;28;19926;-59
2023/04/19 10:05:05;;;;;;;;;;;;;;;12.57;40.46;102634.88;4983509;28;19914;-59
2023/04/19 10:07:31;;;;;;;;;;;;;;;12.61;41.93;102623.88;4983275;28;19936;-57
2023/04/19 10:09:57;;;;;;;;;;;;;;;12.64;41.57;102634.34;4982117;28;19918;-59
2023/04/19 10:12:23;;;;;;;;;;;;;;;12.70;41.34;102639.81;4984014;28;20277;-59
2023/04/19 10:14:49;;;;;;;;;;;;;;;12.65;41.96;102630.06;4984400;28;19921;-57
2023/04/19 10:17:15;;;;;;;;;;;;;;;12.66;41.81;102621.50;4986260;28;19918;-58
2023/04/19 10:19:42;;;;;;;;;;;;;;;12.75;42.33;102621.97;4980229;28;20130;-56
2023/04/19 10:22:07;;;;;;;;;;;;;;;12.77;43.21;102613.47;4980363;28;19945;-58
2023/04/19 10:24:32;;;;;;;;;;;;;;;12.96;40.95;102612.63;4979106;28;19964;-58
2023/04/19 10:27:11;;;;;;;;;;;;;;;13.01;39.67;102605.97;4985822;28;19921;-58
2023/04/19 10:29:55;;;;;;;;;;;;;;;13.06;39.89;102599.31;4983093;28;19921;-58
2023/04/19 10:32:20;;;;;;;;;;;;;;;13.05;39.40;102607.00;4981736;28;20048;-59
2023/04/19 10:34:46;;;;;;;;;;;;;;;13.15;37.81;102611.75;4980589;28;19997;-57
2023/04/19 10:37:16;;;;;;;;;;;;;;;13.12;35.14;102624.53;4985160;28;19969;-59
2023/04/19 10:39:44;;;;;;;;;;;;;;;13.03;37.83;102611.19;4981149;28;20297;-58
2023/04/19 10:42:09;;;;;;;;;;;;;;;13.09;37.58;102602.03;4980381;28;19988;-58
2023/04/19 10:44:34;;;;;;;;;;;;;;;13.17;37.30;102606.69;4980952;28;20404;-59
2023/04/19 10:47:00;;;;;;;;;;;;;;;13.18;36.62;102600.69;4983578;28;19986;-59
2023/04/19 10:49:27;;;;;;;;;;;;;;;13.16;36.57;102616.09;4983751;28;19944;-58
2023/04/19 10:51:53;;;;;;;;;;;;;;;13.10;37.21;102598.66;4979726;28;19929;-57
2023/04/19 10:54:29;;;;;;;;;;;;;;;13.07;36.88;102598.50;4979296;28;20408;-57
2023/04/19 10:56:57;;;;;;;;;;;;;;;12.96;37.43;102610.03;4981625;28;20011;-59
2023/04/19 10:59:23;;;;;;;;;;;;;;;12.96;37.87;102604.00;4986049;28;19922;-62
2023/04/19 11:01:59;;;;;;;;;;;;;;;12.87;38.54;102607.03;4984452;28;19929;-58
2023/04/19 11:04:30;;;;;;;;;;;;;;;13.08;37.37;102599.38;4978104;28;20063;-57
2023/04/19 11:07:06;;;;;;;;;;;;;;;13.17;37.36;102592.06;4975637;28;19960;-56
2023/04/19 11:09:35;;;;;;;;;;;;;;;13.21;37.73;102596.56;4977979;28;19967;-57
2023/04/19 11:12:07;;;;;;;;;;;;;;;13.25;37.89;102598.47;4975584;28;20288;-58
2023/04/19 11:14:41;;;;;;;;;;;;;;;13.37;38.40;102580.94;4976305;28;19952;-57
2023/04/19 11:17:14;;;;;;;;;;;;;;;13.37;37.33;102587.81;4983095;28;19953;-58
2023/04/19 11:19:41;;;;;;;;;;;;;;;13.26;38.60;102582.16;4987155;28;19992;-58
2023/04/19 11:22:06;;;;;;;;;;;;;;;13.41;37.81;102594.88;4979249;28;19921;-57
2023/04/19 11:24:33;;;;;;;;;;;;;;;13.48;38.48;102593.44;4979728;28;19921;-58
2023/04/19 11:26:59;;;;;;;;;;;;;;;13.51;37.75;102596.16;4978254;28;20476;-57
2023/04/19 11:29:24;;;;;;;;;;;;;;;13.49;37.98;102590.03;4978555;28;20103;-57
2023/04/19 11:31:49;;;;;;;;;;;;;;;13.38;37.72;102587.00;4978571;28;20433;-57
2023/04/19 11:34:14;;;;;;;;;;;;;;;13.35;38.55;102582.59;4985289;28;19959;-57
2023/04/19 11:36:46;;;;;;;;;;;;;;;13.41;39.12;102580.28;4984030;28;20032;-57
2023/04/19 11:39:13;;;;;;;;;;;;;;;13.60;38.69;102570.72;4977605;28;19926;-59
2023/04/19 11:41:38;;;;;;;;;;;;;;;13.69;37.01;102571.97;4984499;28;19987;-59
2023/04/19 11:44:03;;;;;;;;;;;;;;;13.71;37.50;102561.72;4981201;28;20377;-57
2023/04/19 11:46:29;;;;;;;;;;;;;;;13.81;37.09;102569.03;4975741;28;19976;-56
2023/04/19 11:48:56;;;;;;;;;;;;;;;13.93;36.59;102561.78;4973971;28;20408;-57
2023/04/19 11:51:22;;;;;;;;;;;;;;;13.76;36.42;102555.03;4990922;28;19922;-56
2023/04/19 11:53:47;;;;;;;;;;;;;;;13.95;35.74;102552.41;4978339;28;19922;-57
2023/04/19 11:56:14;;;;;;;;;;;;;;;13.91;36.21;102545.34;4979426;28;20325;-56
2023/04/19 11:58:48;;;;;;;;;;;;;;;14.12;35.05;102534.06;4977465;28;19926;-56
2023/04/19 12:01:14;;;;;;;;;;;;;;;14.13;35.45;102525.50;4990657;28;19922;-53
2023/04/19 12:03:47;;;;;;;;;;;;;;;14.33;33.45;102537.53;4978887;28;19976;-56
2023/04/19 12:06:13;;;;;;;;;;;;;;;14.26;33.23;102512.25;4991664;28;20387;-55
2023/04/19 12:08:41;;;;;;;;;;;;;;;14.13;31.80;102541.00;4978243;28;19926;-56
2023/04/19 12:11:07;;;;;;;;;;;;;;;14.02;33.61;102522.50;4987037;28;20001;-55
2023/04/19 12:13:32;;;;;;;;;;;;;;;14.19;31.40;102525.72;4985108;28;19918;-55
2023/04/19 12:15:58;;;;;;;;;;;;;;;14.13;32.29;102528.06;4982476;28;19925;-57
2023/04/19 12:18:23;;;;;;;;;;;;;;;14.17;32.43;102524.81;4984430;28;20277;-57
2023/04/19 12:20:49;;;;;;;;;;;;;;;14.20;31.74;102512.88;4976579;28;19918;-57
2023/04/19 12:23:15;;;;;;;;;;;;;;;14.06;31.43;102514.03;4971311;28;19993;-57
2023/04/19 12:25:41;;;;;;;;;;;;;;;14.10;32.88;102522.78;4973414;28;19934;-47
2023/04/19 12:28:07;;;;;;;;;;;;;;;14.34;30.78;102516.00;4977441;28;19917;-47
2023/04/19 12:30:33;;;;;;;;;;;;;;;14.35;31.29;102514.28;4976096;28;19925;-45
2023/04/19 12:32:59;;;;;;;;;;;;;;;14.24;31.22;102503.50;4980831;28;20015;-47
2023/04/19 12:35:26;;;;;;;;;;;;;;;14.17;31.31;102511.88;4978998;28;19963;-48